createdAt,value
2023-05-27T00:01:53.222Z,10.00
2023-05-27T00:04:20.774Z,10.35
2023-05-27T00:06:49.004Z,9.48
2023-05-27T00:09:16.367Z,10.85
2023-05-27T00:11:43.747Z,9.73
2023-05-27T00:14:11.163Z,9.52
2023-05-27T00:16:38.665Z,10.50
2023-05-27T00:19:09.040Z,10.95
2023-05-27T00:21:37.912Z,10.20
2023-05-27T00:24:06.001Z,10.25
2023-05-27T00:26:33.283Z,10.25
2023-05-27T00:29:01.289Z,9.63
2023-05-27T00:31:28.790Z,11.13
2023-05-27T00:33:56.320Z,9.68
2023-05-27T00:36:23.721Z,9.85
2023-05-27T00:38:51.041Z,10.80
2023-05-27T00:41:18.987Z,10.40
2023-05-27T00:43:46.219Z,10.35
2023-05-27T00:46:13.548Z,9.88
2023-05-27T00:48:41.070Z,9.80
2023-05-27T00:51:08.152Z,9.40
2023-05-27T00:53:44.012Z,8.98
2023-05-27T00:56:14.152Z,10.07
2023-05-27T00:58:41.460Z,9.57
2023-05-27T01:01:08.651Z,15.10
2023-05-27T01:03:36.635Z,16.88
2023-05-27T01:06:31.660Z,14.82
2023-05-27T01:09:01.776Z,13.93
2023-05-27T01:11:39.247Z,14.63
2023-05-27T01:14:12.117Z,15.52
2023-05-27T01:19:19.393Z,14.10
2023-05-27T01:21:53.309Z,14.73
2023-05-27T01:24:21.297Z,15.13
2023-05-27T01:26:49.148Z,14.30
2023-05-27T01:29:17.647Z,12.98
2023-05-27T01:32:19.837Z,13.85
2023-05-27T01:35:15.248Z,13.05
2023-05-27T01:37:44.869Z,13.45
2023-05-27T01:40:14.813Z,13.32
2023-05-27T01:42:44.678Z,15.85
2023-05-27T01:45:12.948Z,20.77
2023-05-27T01:47:41.153Z,17.92
2023-05-27T01:50:08.819Z,19.52
2023-05-27T01:52:36.270Z,18.90
2023-05-27T01:55:05.876Z,19.50
2023-05-27T01:57:33.677Z,19.20
2023-05-27T02:00:01.334Z,17.27
2023-05-27T02:02:28.709Z,14.80
2023-05-27T02:04:56.023Z,12.57
2023-05-27T02:07:24.075Z,18.02
2023-05-27T02:09:51.751Z,16.88
2023-05-27T02:12:19.924Z,14.65
2023-05-27T02:14:47.660Z,15.20
2023-05-27T02:17:15.989Z,20.98
2023-05-27T02:19:43.466Z,22.08
2023-05-27T02:22:11.573Z,19.38
2023-05-27T02:24:38.731Z,20.75
2023-05-27T02:27:07.085Z,18.80
2023-05-27T02:29:34.143Z,16.63
2023-05-27T02:32:01.534Z,16.42
2023-05-27T02:34:28.638Z,17.95
2023-05-27T02:36:56.790Z,16.05
2023-05-27T02:39:23.847Z,14.93
2023-05-27T02:41:52.629Z,11.98
2023-05-27T02:44:19.709Z,19.38
2023-05-27T02:46:46.982Z,20.00
2023-05-27T02:49:14.078Z,18.52
2023-05-27T02:51:41.273Z,20.45
2023-05-27T02:54:08.501Z,21.02
2023-05-27T02:56:35.880Z,21.52
2023-05-27T02:59:03.391Z,19.52
2023-05-27T03:01:30.664Z,20.23
2023-05-27T03:03:58.002Z,18.25
2023-05-27T03:06:25.080Z,15.55
2023-05-27T03:08:52.185Z,14.95
2023-05-27T03:11:19.407Z,14.88
2023-05-27T03:13:46.612Z,13.90
2023-05-27T03:16:15.309Z,12.40
2023-05-27T03:18:42.691Z,13.43
2023-05-27T03:21:10.130Z,13.88
2023-05-27T03:23:37.261Z,12.35
2023-05-27T03:26:04.840Z,12.85
2023-05-27T03:28:32.696Z,15.10
2023-05-27T03:31:00.891Z,14.18
2023-05-27T03:33:41.693Z,13.82
2023-05-27T03:36:09.214Z,14.30
2023-05-27T03:38:36.509Z,12.60
2023-05-27T03:41:03.805Z,12.93
2023-05-27T03:43:31.284Z,13.13
2023-05-27T03:45:58.851Z,13.00
2023-05-27T03:48:26.464Z,12.07
2023-05-27T03:50:53.547Z,12.05
2023-05-27T03:53:20.949Z,13.43
2023-05-27T03:55:47.979Z,12.90
2023-05-27T03:58:15.066Z,11.90
2023-05-27T04:00:42.902Z,13.35
2023-05-27T04:03:11.236Z,12.00
2023-05-27T04:05:38.765Z,12.52
2023-05-27T04:08:06.093Z,10.55
2023-05-27T04:10:33.385Z,12.15
2023-05-27T04:13:00.825Z,13.38
2023-05-27T04:15:27.992Z,13.15
2023-05-27T04:17:55.090Z,12.25
2023-05-27T04:20:23.146Z,13.82
2023-05-27T04:22:54.686Z,14.93
2023-05-27T04:25:21.959Z,16.70
2023-05-27T04:28:06.050Z,16.50
2023-05-27T04:33:10.270Z,12.23
2023-05-27T04:35:38.141Z,11.98
2023-05-27T04:38:05.246Z,11.18
2023-05-27T04:40:47.707Z,11.00
2023-05-27T04:45:57.281Z,11.88
2023-05-27T04:48:25.270Z,11.82
2023-05-27T04:50:55.208Z,14.90
2023-05-27T04:53:22.849Z,15.82
2023-05-27T04:55:52.346Z,14.13
2023-05-27T04:58:20.793Z,12.45
2023-05-27T05:00:54.603Z,12.50
2023-05-27T05:03:37.910Z,11.35
2023-05-27T05:06:06.705Z,12.02
2023-05-27T05:08:34.186Z,13.45
2023-05-27T05:11:01.904Z,17.00
2023-05-27T05:13:30.576Z,15.43
2023-05-27T05:15:57.987Z,15.18
2023-05-27T05:18:25.037Z,15.70
2023-05-27T05:20:55.732Z,16.45
2023-05-27T05:23:32.419Z,15.27
2023-05-27T05:26:07.232Z,14.32
2023-05-27T05:28:37.634Z,10.23
2023-05-27T05:31:06.291Z,9.38
2023-05-27T05:33:33.378Z,10.32
2023-05-27T05:36:01.318Z,8.07
2023-05-27T05:38:36.842Z,9.60
2023-05-27T05:41:04.366Z,9.82
2023-05-27T05:43:34.085Z,9.82
2023-05-27T05:46:03.443Z,9.20
2023-05-27T05:48:31.818Z,9.30
2023-05-27T05:51:02.162Z,9.70
2023-05-27T05:53:30.472Z,9.98
2023-05-27T05:55:57.850Z,10.75
2023-05-27T05:58:26.130Z,11.10
2023-05-27T06:00:53.389Z,9.02
2023-05-27T06:03:33.144Z,9.32
2023-05-27T06:06:01.853Z,9.75
2023-05-27T06:08:29.427Z,8.00
2023-05-27T06:11:03.299Z,9.30
2023-05-27T06:13:34.109Z,8.73
2023-05-27T06:16:06.099Z,8.27
2023-05-27T06:18:33.807Z,8.88
2023-05-27T06:21:00.853Z,9.40
2023-05-27T06:23:31.416Z,9.07
2023-05-27T06:26:07.553Z,9.13
2023-05-27T06:28:41.994Z,8.85
2023-05-27T06:31:10.975Z,9.60
2023-05-27T06:33:42.078Z,8.88
2023-05-27T06:36:09.700Z,8.25
2023-05-27T06:38:39.555Z,7.35
2023-05-27T06:41:06.892Z,7.25
2023-05-27T06:43:34.860Z,6.43
2023-05-27T06:46:20.765Z,7.47
2023-05-27T06:49:09.406Z,7.70
2023-05-27T06:51:37.266Z,7.68
2023-05-27T06:54:05.856Z,6.95
2023-05-27T06:56:38.434Z,8.20
2023-05-27T06:59:24.264Z,8.52
2023-05-27T07:01:52.575Z,7.75
2023-05-27T07:04:19.809Z,7.93
2023-05-27T07:06:55.938Z,7.80
2023-05-27T07:09:23.276Z,8.52
2023-05-27T07:11:50.413Z,7.60
2023-05-27T07:14:37.845Z,7.72
2023-05-27T07:17:06.348Z,7.90
2023-05-27T07:19:33.525Z,7.20
2023-05-27T07:22:05.915Z,7.15
2023-05-27T07:24:35.479Z,8.10
2023-05-27T07:27:06.012Z,7.05
2023-05-27T07:29:36.920Z,7.18
2023-05-27T07:32:15.362Z,6.63
2023-05-27T07:34:45.002Z,6.95
2023-05-27T07:37:14.668Z,7.20
2023-05-27T07:39:44.693Z,8.10
2023-05-27T07:42:18.097Z,7.47
2023-05-27T07:44:47.047Z,8.00
2023-05-27T07:47:16.182Z,7.57
2023-05-27T07:49:44.298Z,7.22
2023-05-27T07:52:34.710Z,7.10
2023-05-27T07:55:12.051Z,7.65
2023-05-27T07:57:41.772Z,8.33
2023-05-27T08:00:09.693Z,8.05
2023-05-27T08:02:54.832Z,8.20
2023-05-27T08:08:33.420Z,7.80
2023-05-27T08:11:20.255Z,7.72
2023-05-27T08:13:59.481Z,8.18
2023-05-27T08:17:00.421Z,8.00
2023-05-27T08:19:51.029Z,7.75
2023-05-27T08:22:44.122Z,8.40
2023-05-27T08:25:20.695Z,8.52
2023-05-27T08:28:03.064Z,8.80
2023-05-27T08:31:02.594Z,8.20
2023-05-27T08:33:39.175Z,8.30
2023-05-27T08:36:07.207Z,8.15
2023-05-27T08:38:35.155Z,8.32
2023-05-27T08:41:18.375Z,8.40
2023-05-27T08:43:46.738Z,8.90
2023-05-27T08:46:16.230Z,8.90
2023-05-27T08:48:44.602Z,9.65
2023-05-27T08:51:13.885Z,9.27
2023-05-27T08:53:41.336Z,9.00
2023-05-27T08:56:10.230Z,9.10
2023-05-27T08:58:43.032Z,8.38
2023-05-27T09:01:10.944Z,9.35
2023-05-27T09:03:38.788Z,9.15
2023-05-27T09:06:06.409Z,8.80
2023-05-27T09:08:49.517Z,8.18
2023-05-27T09:11:25.401Z,8.18
2023-05-27T09:13:57.248Z,8.35
2023-05-27T09:16:31.619Z,7.85
2023-05-27T09:18:59.085Z,7.80
2023-05-27T09:21:30.139Z,8.13
2023-05-27T09:24:01.167Z,7.82
2023-05-27T09:26:29.062Z,7.43
2023-05-27T09:28:57.000Z,8.38
2023-05-27T09:31:25.550Z,9.15
2023-05-27T09:33:53.176Z,7.53
2023-05-27T09:36:23.905Z,8.45
2023-05-27T09:38:52.103Z,8.00
2023-05-27T09:41:26.532Z,8.40
2023-05-27T09:43:57.635Z,8.00
2023-05-27T09:46:27.274Z,9.05
2023-05-27T09:48:55.515Z,9.30
2023-05-27T09:51:23.911Z,10.15
2023-05-27T09:53:54.698Z,8.60
2023-05-27T09:56:24.699Z,9.02
2023-05-27T09:58:52.272Z,9.98
2023-05-27T10:01:20.263Z,9.15
2023-05-27T10:03:48.340Z,9.07
2023-05-27T10:06:16.649Z,8.93
2023-05-27T10:08:44.866Z,8.38
2023-05-27T10:11:13.019Z,8.52
2023-05-27T10:13:40.519Z,8.73
2023-05-27T10:16:07.745Z,8.60
2023-05-27T10:18:35.300Z,7.80
2023-05-27T10:21:06.418Z,7.82
2023-05-27T10:23:33.826Z,8.38
2023-05-27T10:26:07.406Z,8.55
2023-05-27T10:28:42.861Z,8.95
2023-05-27T10:31:18.954Z,8.70
2023-05-27T10:33:48.885Z,8.68
2023-05-27T10:36:37.877Z,9.25
2023-05-27T10:39:06.795Z,9.40
2023-05-27T10:41:42.518Z,9.63
2023-05-27T10:44:14.363Z,9.55
2023-05-27T10:46:45.536Z,8.70
2023-05-27T10:49:24.980Z,9.15
2023-05-27T10:51:54.747Z,8.32
2023-05-27T10:54:29.574Z,8.63
2023-05-27T10:56:57.558Z,9.23
2023-05-27T10:59:25.797Z,8.88
2023-05-27T11:01:54.858Z,9.02
2023-05-27T11:04:23.692Z,8.50
2023-05-27T11:07:03.706Z,8.52
2023-05-27T11:09:33.036Z,8.23
2023-05-27T11:12:06.582Z,8.82
2023-05-27T11:14:34.930Z,8.98
2023-05-27T11:17:02.184Z,9.05
2023-05-27T11:19:29.586Z,9.13
2023-05-27T11:21:56.992Z,8.50
2023-05-27T11:24:24.320Z,8.52
2023-05-27T11:26:52.263Z,9.88
2023-05-27T11:29:19.935Z,9.13
2023-05-27T11:31:50.970Z,8.45
2023-05-27T11:34:22.033Z,8.02
2023-05-27T11:36:51.361Z,8.43
2023-05-27T11:39:18.434Z,8.05
2023-05-27T11:41:52.380Z,7.90
2023-05-27T11:44:26.413Z,8.52
2023-05-27T11:47:02.554Z,7.45
2023-05-27T11:49:30.042Z,7.85
2023-05-27T11:51:58.759Z,7.78
2023-05-27T11:54:28.559Z,7.97
2023-05-27T11:56:57.401Z,8.30
2023-05-27T11:59:25.257Z,8.38
2023-05-27T12:01:55.390Z,8.25
2023-05-27T12:04:22.801Z,8.45
2023-05-27T12:06:49.961Z,9.68
2023-05-27T12:09:17.630Z,8.48
2023-05-27T12:11:44.724Z,8.65
2023-05-27T12:14:11.871Z,8.77
2023-05-27T12:16:39.129Z,8.45
2023-05-27T12:19:06.745Z,9.25
2023-05-27T12:21:33.885Z,8.48
2023-05-27T12:24:01.025Z,9.05
2023-05-27T12:26:28.272Z,8.65
2023-05-27T12:28:55.603Z,9.43
2023-05-27T12:31:24.310Z,8.70
2023-05-27T12:33:51.486Z,9.50
2023-05-27T12:36:20.473Z,9.80
2023-05-27T12:38:47.832Z,10.73
2023-05-27T12:41:15.111Z,10.02
2023-05-27T12:43:42.169Z,9.50
2023-05-27T12:46:09.701Z,9.23
2023-05-27T12:48:36.833Z,10.68
2023-05-27T12:51:04.382Z,10.07
2023-05-27T12:53:31.564Z,9.25
2023-05-27T12:55:58.797Z,9.43
2023-05-27T12:58:25.996Z,8.70
2023-05-27T13:00:55.606Z,8.77
2023-05-27T13:03:23.031Z,8.52
2023-05-27T13:05:50.534Z,8.35
2023-05-27T13:08:17.805Z,8.13
2023-05-27T13:10:45.881Z,8.15
2023-05-27T13:13:12.986Z,7.03
2023-05-27T13:15:42.814Z,7.57
2023-05-27T13:18:11.538Z,8.57
2023-05-27T13:20:39.159Z,8.40
2023-05-27T13:23:06.945Z,7.82
2023-05-27T13:25:34.259Z,8.50
2023-05-27T13:28:02.747Z,8.20
2023-05-27T13:30:30.321Z,7.28
2023-05-27T13:32:57.684Z,8.00
2023-05-27T13:35:24.911Z,7.88
2023-05-27T13:37:52.633Z,7.30
2023-05-27T13:40:20.245Z,7.82
2023-05-27T13:42:47.678Z,8.20
2023-05-27T13:45:14.862Z,7.70
2023-05-27T13:47:44.187Z,7.53
2023-05-27T13:50:11.631Z,7.20
2023-05-27T13:52:40.192Z,7.78
2023-05-27T13:55:08.053Z,7.28
2023-05-27T13:57:35.334Z,8.40
2023-05-27T14:00:02.520Z,7.72
2023-05-27T14:02:32.278Z,8.20
2023-05-27T14:04:59.592Z,7.32
2023-05-27T14:07:26.976Z,7.15
2023-05-27T14:09:56.007Z,7.00
2023-05-27T14:12:23.292Z,7.88
2023-05-27T14:14:50.410Z,7.55
2023-05-27T14:17:17.559Z,7.03
2023-05-27T14:19:44.726Z,7.50
2023-05-27T14:22:12.893Z,8.25
2023-05-27T14:24:39.910Z,6.95
2023-05-27T14:27:08.166Z,7.95
2023-05-27T14:29:35.512Z,7.78
2023-05-27T14:32:03.081Z,8.82
2023-05-27T14:34:30.287Z,8.73
2023-05-27T14:36:57.424Z,8.65
2023-05-27T14:39:24.632Z,8.63
2023-05-27T14:41:51.875Z,8.60
2023-05-27T14:44:19.144Z,8.15
2023-05-27T14:46:46.456Z,8.45
2023-05-27T14:49:13.668Z,8.57
2023-05-27T14:51:40.893Z,8.30
2023-05-27T14:54:09.859Z,8.77
2023-05-27T14:56:38.422Z,8.43
2023-05-27T14:59:05.639Z,8.75
2023-05-27T15:01:32.980Z,8.82
2023-05-27T15:04:00.403Z,8.40
2023-05-27T15:06:27.779Z,9.00
2023-05-27T15:08:54.956Z,9.20
2023-05-27T15:11:22.170Z,8.15
2023-05-27T15:13:49.232Z,8.40
2023-05-27T15:16:16.492Z,8.90
2023-05-27T15:18:43.625Z,7.85
2023-05-27T15:21:11.211Z,8.85
2023-05-27T15:23:38.404Z,8.30
2023-05-27T15:26:05.659Z,7.95
2023-05-27T15:28:32.918Z,7.80
2023-05-27T15:31:00.205Z,7.75
2023-05-27T15:33:27.516Z,7.05
2023-05-27T15:35:55.132Z,7.32
2023-05-27T15:38:22.306Z,7.43
2023-05-27T15:40:49.499Z,8.63
2023-05-27T15:46:33.221Z,9.45
2023-05-27T15:49:01.343Z,9.50
2023-05-27T15:51:28.757Z,10.27
2023-05-27T15:53:56.523Z,8.65
2023-05-27T15:56:23.740Z,10.50
2023-05-27T15:58:50.938Z,10.27
2023-05-27T16:01:18.128Z,10.65
2023-05-27T16:03:45.337Z,10.85
2023-05-27T16:06:12.750Z,9.63
2023-05-27T16:08:39.828Z,8.57
2023-05-27T16:11:07.414Z,8.50
2023-05-27T16:13:36.548Z,8.65
2023-05-27T16:16:03.800Z,9.15
2023-05-27T16:18:32.919Z,8.75
2023-05-27T16:21:00.805Z,9.27
2023-05-27T16:23:28.339Z,9.50
2023-05-27T16:25:56.476Z,9.88
2023-05-27T16:28:24.167Z,8.55
2023-05-27T16:30:52.155Z,8.65
2023-05-27T16:33:19.682Z,8.60
2023-05-27T16:35:46.866Z,7.63
2023-05-27T16:38:14.183Z,8.18
2023-05-27T16:40:41.198Z,8.27
2023-05-27T16:43:08.618Z,6.75
2023-05-27T16:45:35.695Z,7.10
2023-05-27T16:48:07.946Z,7.18
2023-05-27T16:50:38.368Z,7.07
2023-05-27T16:53:05.676Z,6.68
2023-05-27T16:55:32.688Z,6.95
2023-05-27T16:57:59.942Z,8.40
2023-05-27T17:00:27.141Z,6.63
2023-05-27T17:02:54.432Z,7.13
2023-05-27T17:05:21.755Z,7.28
2023-05-27T17:07:49.008Z,7.20
2023-05-27T17:10:16.461Z,6.93
2023-05-27T17:12:43.707Z,7.43
2023-05-27T17:15:11.839Z,7.65
2023-05-27T17:17:39.231Z,7.85
2023-05-27T17:20:08.409Z,7.70
2023-05-27T17:22:38.772Z,8.65
2023-05-27T17:25:06.683Z,7.38
2023-05-27T17:27:35.084Z,7.30
2023-05-27T17:30:04.033Z,7.00
2023-05-27T17:32:31.248Z,6.80
2023-05-27T17:34:58.341Z,7.60
2023-05-27T17:37:28.277Z,7.70
2023-05-27T17:39:55.814Z,8.05
2023-05-27T17:42:23.406Z,8.18
2023-05-27T17:44:51.072Z,7.30
2023-05-27T17:47:18.081Z,7.95
2023-05-27T17:49:45.448Z,7.90
2023-05-27T17:52:20.942Z,8.73
2023-05-27T17:54:49.218Z,8.13
2023-05-27T17:57:16.251Z,8.48
2023-05-27T17:59:44.743Z,7.55
2023-05-27T18:02:11.851Z,8.98
2023-05-27T18:04:39.079Z,8.80
2023-05-27T18:07:06.344Z,8.13
2023-05-27T18:09:33.494Z,9.60
2023-05-27T18:12:00.495Z,8.85
2023-05-27T18:14:29.775Z,9.20
2023-05-27T18:16:57.116Z,9.38
2023-05-27T18:19:27.150Z,8.75
2023-05-27T18:22:00.077Z,8.57
2023-05-27T18:24:28.477Z,8.82
2023-05-27T18:26:56.689Z,11.43
2023-05-27T18:29:26.658Z,12.50
2023-05-27T18:31:53.909Z,11.40
2023-05-27T18:34:21.178Z,11.98
2023-05-27T18:36:48.506Z,12.23
2023-05-27T18:39:15.760Z,11.13
2023-05-27T18:41:44.422Z,10.38
2023-05-27T18:44:11.533Z,11.85
2023-05-27T18:46:39.498Z,11.30
2023-05-27T18:49:07.300Z,9.55
2023-05-27T18:51:35.069Z,10.02
2023-05-27T18:54:02.920Z,9.40
2023-05-27T18:56:31.755Z,9.30
2023-05-27T18:58:59.005Z,8.63
2023-05-27T19:01:26.327Z,8.15
2023-05-27T19:03:53.555Z,7.93
2023-05-27T19:06:21.084Z,9.32
2023-05-27T19:08:48.112Z,8.32
2023-05-27T19:11:15.303Z,8.05
2023-05-27T19:13:42.597Z,8.20
2023-05-27T19:16:10.011Z,8.52
2023-05-27T19:18:37.276Z,9.82
2023-05-27T19:21:05.169Z,9.23
2023-05-27T19:23:32.514Z,8.77
2023-05-27T19:25:59.772Z,8.48
2023-05-27T19:28:26.885Z,8.88
2023-05-27T19:30:54.449Z,8.93
2023-05-27T19:33:23.716Z,8.98
2023-05-27T19:35:51.564Z,8.85
2023-05-27T19:38:18.838Z,10.27
2023-05-27T19:40:46.202Z,8.65
2023-05-27T19:43:13.749Z,9.25
2023-05-27T19:45:41.528Z,9.27
2023-05-27T19:48:09.274Z,10.18
2023-05-27T19:50:37.532Z,10.50
2023-05-27T19:53:05.749Z,10.38
2023-05-27T19:55:36.653Z,10.65
2023-05-27T19:58:05.423Z,11.20
2023-05-27T20:00:33.001Z,12.73
2023-05-27T20:03:00.465Z,14.10
2023-05-27T20:05:28.581Z,13.63
2023-05-27T20:07:56.560Z,12.00
2023-05-27T20:10:24.492Z,18.73
2023-05-27T20:12:52.619Z,14.18
2023-05-27T20:15:19.856Z,13.13
2023-05-27T20:17:47.284Z,16.42
2023-05-27T20:20:14.763Z,14.52
2023-05-27T20:22:42.469Z,14.88
2023-05-27T20:25:10.252Z,13.35
2023-05-27T20:27:37.502Z,14.05
2023-05-27T20:30:05.479Z,15.05
2023-05-27T20:32:32.670Z,11.85
2023-05-27T20:34:59.966Z,12.43
2023-05-27T20:37:27.069Z,12.48
2023-05-27T20:39:54.677Z,13.48
2023-05-27T20:42:21.947Z,14.35
2023-05-27T20:44:49.200Z,12.95
2023-05-27T20:47:16.738Z,15.55
2023-05-27T20:49:43.849Z,14.57
2023-05-27T20:52:11.097Z,13.55
2023-05-27T20:54:38.204Z,15.50
2023-05-27T20:57:06.508Z,14.75
2023-05-27T20:59:33.973Z,14.85
2023-05-27T21:02:09.243Z,14.10
2023-05-27T21:04:36.648Z,13.60
2023-05-27T21:07:03.767Z,14.27
2023-05-27T21:09:32.663Z,14.75
2023-05-27T21:11:59.926Z,12.95
2023-05-27T21:14:27.237Z,14.57
2023-05-27T21:16:54.463Z,13.80
2023-05-27T21:19:21.729Z,14.13
2023-05-27T21:21:49.222Z,13.15
2023-05-27T21:24:16.642Z,13.65
2023-05-27T21:26:44.339Z,12.90
2023-05-27T21:29:12.133Z,13.50
2023-05-27T21:31:39.503Z,14.45
2023-05-27T21:34:07.075Z,13.68
2023-05-27T21:36:34.770Z,11.85
2023-05-27T21:39:01.868Z,13.20
2023-05-27T21:41:29.146Z,14.50
2023-05-27T21:43:56.439Z,15.55
2023-05-27T21:46:23.838Z,13.82
2023-05-27T21:48:51.258Z,12.85
2023-05-27T21:51:18.413Z,14.45
2023-05-27T21:53:46.310Z,13.43
2023-05-27T21:56:13.500Z,13.90
2023-05-27T21:58:41.911Z,12.75
2023-05-27T22:01:13.315Z,12.07
2023-05-27T22:03:41.367Z,12.48
2023-05-27T22:06:08.541Z,14.82
2023-05-27T22:08:36.487Z,14.48
2023-05-27T22:11:04.522Z,14.40
2023-05-27T22:13:32.408Z,14.95
2023-05-27T22:16:02.250Z,13.75
2023-05-27T22:18:29.968Z,13.38
2023-05-27T22:20:57.445Z,13.98
2023-05-27T22:23:24.706Z,14.57
2023-05-27T22:25:51.970Z,13.90
2023-05-27T22:28:19.413Z,13.48
2023-05-27T22:30:46.981Z,12.90
2023-05-27T22:33:14.248Z,13.65
2023-05-27T22:35:41.276Z,12.30
2023-05-27T22:38:08.507Z,14.68
2023-05-27T22:40:36.008Z,14.63
2023-05-27T22:43:03.130Z,14.32
2023-05-27T22:45:30.414Z,15.48
2023-05-27T22:47:57.719Z,15.32
2023-05-27T22:50:25.045Z,17.30
2023-05-27T22:52:52.132Z,14.32
2023-05-27T22:55:19.455Z,14.38
2023-05-27T22:57:46.568Z,17.08
2023-05-27T23:00:14.424Z,16.83
2023-05-27T23:02:41.694Z,15.57
2023-05-27T23:05:09.180Z,17.20
2023-05-27T23:07:36.406Z,18.77
2023-05-27T23:10:03.660Z,20.17
2023-05-27T23:12:30.856Z,18.10
2023-05-27T23:14:57.885Z,21.52
2023-05-27T23:17:25.247Z,21.00
2023-05-27T23:19:52.417Z,19.85
2023-05-27T23:22:19.692Z,19.13
2023-05-27T23:24:46.712Z,20.05
2023-05-27T23:27:13.760Z,17.77
2023-05-27T23:29:41.022Z,16.63
2023-05-27T23:32:08.097Z,17.55
2023-05-27T23:34:35.194Z,21.30
2023-05-27T23:37:02.388Z,20.38
2023-05-27T23:39:29.406Z,20.92
2023-05-27T23:41:58.322Z,19.10
2023-05-27T23:44:26.303Z,20.77
2023-05-27T23:46:53.385Z,19.85
2023-05-27T23:49:20.578Z,21.77
2023-05-27T23:51:48.030Z,20.73
2023-05-27T23:54:15.243Z,19.95
2023-05-27T23:56:42.367Z,23.60
2023-05-27T23:59:09.442Z,21.05
